createdAt,value
2023-02-27T00:01:40.190Z,77.25
2023-02-27T00:04:06.544Z,77.32
2023-02-27T00:06:32.922Z,76.95
2023-02-27T00:08:59.217Z,76.48
2023-02-27T00:11:26.097Z,76.79
2023-02-27T00:13:52.850Z,77.64
2023-02-27T00:16:19.193Z,78.11
2023-02-27T00:18:45.661Z,78.81
2023-02-27T00:21:11.951Z,78.12
2023-02-27T00:23:38.458Z,78.31
2023-02-27T00:26:04.945Z,78.02
2023-02-27T00:28:31.233Z,78.37
2023-02-27T00:30:58.139Z,78.04
2023-02-27T00:33:24.523Z,77.57
2023-02-27T00:36:01.643Z,78.37
2023-02-27T00:38:28.503Z,79.34
2023-02-27T00:40:57.504Z,78.51
2023-02-27T00:43:24.098Z,78.52
2023-02-27T00:45:50.442Z,78.32
2023-02-27T00:48:16.887Z,79.91
2023-02-27T00:50:43.598Z,77.57
2023-02-27T00:53:10.098Z,77.83
2023-02-27T00:55:36.517Z,80.02
2023-02-27T00:58:03.083Z,79.26
2023-02-27T01:00:30.230Z,78.30
2023-02-27T01:02:56.574Z,78.36
2023-02-27T01:05:23.748Z,78.18
2023-02-27T01:07:50.967Z,77.82
2023-02-27T01:10:17.646Z,78.68
2023-02-27T01:12:43.979Z,77.97
2023-02-27T01:15:11.808Z,78.91
2023-02-27T01:17:38.459Z,79.62
2023-02-27T01:20:07.226Z,78.48
2023-02-27T01:22:34.079Z,78.57
2023-02-27T01:25:00.984Z,78.01
2023-02-27T01:27:27.716Z,78.08
2023-02-27T01:29:54.015Z,78.26
2023-02-27T01:32:20.498Z,78.49
2023-02-27T01:34:46.993Z,78.79
2023-02-27T01:37:13.499Z,78.90
2023-02-27T01:39:42.633Z,78.44
2023-02-27T01:42:24.585Z,79.85
2023-02-27T01:45:11.862Z,80.66
2023-02-27T01:47:42.044Z,80.93
2023-02-27T01:50:10.313Z,80.39
2023-02-27T01:52:38.495Z,79.30
2023-02-27T01:55:08.178Z,80.13
2023-02-27T01:57:35.999Z,81.07
2023-02-27T02:00:02.825Z,80.97
2023-02-27T02:02:42.493Z,81.40
2023-02-27T02:05:09.656Z,81.33
2023-02-27T02:07:40.071Z,81.35
2023-02-27T02:10:07.917Z,81.90
2023-02-27T02:12:38.119Z,81.58
2023-02-27T02:15:06.055Z,80.83
2023-02-27T02:18:06.971Z,81.17
2023-02-27T02:20:54.655Z,81.46
2023-02-27T02:23:39.666Z,81.98
2023-02-27T02:26:19.608Z,81.67
2023-02-27T02:29:22.830Z,81.32
2023-02-27T02:32:34.920Z,81.04
2023-02-27T02:35:45.815Z,81.60
2023-02-27T02:38:43.846Z,81.45
2023-02-27T02:41:36.835Z,81.47
2023-02-27T02:44:28.834Z,81.72
2023-02-27T02:47:22.783Z,81.60
2023-02-27T02:50:05.260Z,82.37
2023-02-27T02:52:43.873Z,82.77
2023-02-27T02:55:15.987Z,83.78
2023-02-27T02:57:58.511Z,83.11
2023-02-27T03:00:31.654Z,83.30
2023-02-27T03:03:12.491Z,83.26
2023-02-27T03:05:52.754Z,83.13
2023-02-27T03:08:25.804Z,83.02
2023-02-27T03:11:01.063Z,82.35
2023-02-27T03:13:34.901Z,80.81
2023-02-27T03:16:33.628Z,80.18
2023-02-27T03:19:08.827Z,79.89
2023-02-27T03:21:41.231Z,81.63
2023-02-27T03:24:12.717Z,81.62
2023-02-27T03:26:42.317Z,82.22
2023-02-27T03:29:12.498Z,81.63
2023-02-27T03:32:01.045Z,81.60
2023-02-27T03:34:31.286Z,81.43
2023-02-27T03:37:21.756Z,80.80
2023-02-27T03:40:10.645Z,81.29
2023-02-27T03:42:46.309Z,82.27
2023-02-27T03:45:38.511Z,81.74
2023-02-27T03:48:06.782Z,81.19
2023-02-27T03:50:35.557Z,81.17
2023-02-27T03:53:06.948Z,81.56
2023-02-27T03:55:39.551Z,81.05
2023-02-27T03:58:05.949Z,81.75
2023-02-27T04:00:33.362Z,81.98
2023-02-27T04:03:00.857Z,83.18
2023-02-27T04:05:29.562Z,81.66
2023-02-27T04:08:43.368Z,82.02
2023-02-27T04:11:38.935Z,82.23
2023-02-27T04:14:23.429Z,82.14
2023-02-27T04:17:03.668Z,82.13
2023-02-27T04:19:36.181Z,82.05
2023-02-27T04:22:26.886Z,82.14
2023-02-27T04:25:05.271Z,81.81
2023-02-27T04:28:01.978Z,84.66
2023-02-27T04:30:49.262Z,84.33
2023-02-27T04:33:43.076Z,84.53
2023-02-27T04:36:18.749Z,84.90
2023-02-27T04:38:55.421Z,84.67
2023-02-27T04:41:29.346Z,84.96
2023-02-27T04:43:57.403Z,85.86
2023-02-27T04:46:27.852Z,85.18
2023-02-27T04:49:00.755Z,85.82
2023-02-27T04:51:35.595Z,84.59
2023-02-27T04:54:10.864Z,83.82
2023-02-27T04:56:46.345Z,84.75
2023-02-27T04:59:23.216Z,85.33
2023-02-27T05:02:01.202Z,84.10
2023-02-27T05:04:31.822Z,85.25
2023-02-27T05:07:00.898Z,84.86
2023-02-27T05:09:40.864Z,84.83
2023-02-27T05:12:28.615Z,84.57
2023-02-27T05:15:05.406Z,85.24
2023-02-27T05:17:37.191Z,84.85
2023-02-27T05:20:07.097Z,85.29
2023-02-27T05:22:42.684Z,84.71
2023-02-27T05:25:15.379Z,86.40
2023-02-27T05:27:48.136Z,85.22
2023-02-27T05:30:27.720Z,85.66
2023-02-27T05:33:03.257Z,86.12
2023-02-27T05:35:34.324Z,86.31
2023-02-27T05:38:04.316Z,87.72
2023-02-27T05:40:37.640Z,86.73
2023-02-27T05:43:19.613Z,85.70
2023-02-27T05:45:49.517Z,86.26
2023-02-27T05:48:20.675Z,85.62
2023-02-27T05:50:49.227Z,85.51
2023-02-27T05:53:19.199Z,86.82
2023-02-27T05:55:52.621Z,86.96
2023-02-27T05:58:43.184Z,85.71
2023-02-27T06:01:11.717Z,84.71
2023-02-27T06:03:40.180Z,85.30
2023-02-27T06:06:11.078Z,85.67
2023-02-27T06:08:37.874Z,85.78
2023-02-27T06:11:04.404Z,86.42
2023-02-27T06:13:30.853Z,86.98
2023-02-27T06:15:57.256Z,87.14
2023-02-27T06:18:23.671Z,86.76
2023-02-27T06:20:50.155Z,85.38
2023-02-27T06:23:17.124Z,85.83
2023-02-27T06:25:43.920Z,85.42
2023-02-27T06:28:10.851Z,85.74
2023-02-27T06:30:37.995Z,86.38
2023-02-27T06:33:04.445Z,86.32
2023-02-27T06:35:31.402Z,87.20
2023-02-27T06:37:57.805Z,86.96
2023-02-27T06:40:24.443Z,87.36
2023-02-27T06:42:51.311Z,87.82
2023-02-27T06:45:18.047Z,87.61
2023-02-27T06:47:44.849Z,87.96
2023-02-27T06:50:12.965Z,88.37
2023-02-27T06:52:40.274Z,87.29
2023-02-27T06:55:08.262Z,86.39
2023-02-27T06:57:34.714Z,88.11
2023-02-27T07:00:01.295Z,88.17
2023-02-27T07:02:27.643Z,87.80
2023-02-27T07:04:54.029Z,88.32
2023-02-27T07:07:33.348Z,88.05
2023-02-27T07:10:04.200Z,88.93
2023-02-27T07:12:30.510Z,88.31
2023-02-27T07:14:56.816Z,87.72
2023-02-27T07:17:23.148Z,88.08
2023-02-27T07:19:49.525Z,88.88
2023-02-27T07:22:15.842Z,88.48
2023-02-27T07:24:42.257Z,89.73
2023-02-27T07:27:08.630Z,88.84
2023-02-27T07:29:35.922Z,89.51
2023-02-27T07:32:02.669Z,89.21
2023-02-27T07:34:29.029Z,88.23
2023-02-27T07:36:55.308Z,88.79
2023-02-27T07:39:21.655Z,88.53
2023-02-27T07:41:47.955Z,88.89
2023-02-27T07:44:17.013Z,90.07
2023-02-27T07:46:44.645Z,89.46
2023-02-27T07:49:11.122Z,89.08
2023-02-27T07:51:37.439Z,90.16
2023-02-27T07:54:03.822Z,89.04
2023-02-27T07:56:30.553Z,88.30
2023-02-27T07:58:57.004Z,85.70
2023-02-27T08:01:23.364Z,85.88
2023-02-27T08:03:49.903Z,85.49
2023-02-27T08:06:16.506Z,85.00
2023-02-27T08:08:42.904Z,85.25
2023-02-27T08:11:09.537Z,85.44
2023-02-27T08:13:59.450Z,85.17
2023-02-27T08:16:22.205Z,84.86
2023-02-27T08:18:48.567Z,84.62
2023-02-27T08:21:15.685Z,83.46
2023-02-27T08:23:42.715Z,83.38
2023-02-27T08:26:09.093Z,83.12
2023-02-27T08:28:35.428Z,83.76
2023-02-27T08:31:01.882Z,83.89
2023-02-27T08:33:28.236Z,83.38
2023-02-27T08:35:55.600Z,83.33
2023-02-27T08:38:21.948Z,83.95
2023-02-27T08:40:50.764Z,83.03
2023-02-27T08:43:17.052Z,82.86
2023-02-27T08:45:43.390Z,82.14
2023-02-27T08:48:13.900Z,82.84
2023-02-27T08:50:40.200Z,81.51
2023-02-27T08:53:06.535Z,82.02
2023-02-27T08:55:32.943Z,81.75
2023-02-27T08:57:59.286Z,81.88
2023-02-27T09:00:26.715Z,81.71
2023-02-27T09:02:53.891Z,80.57
2023-02-27T09:05:20.420Z,79.17
2023-02-27T09:07:46.714Z,78.14
2023-02-27T09:10:13.016Z,78.48
2023-02-27T09:12:39.409Z,78.26
2023-02-27T09:15:07.006Z,77.75
2023-02-27T09:17:33.399Z,77.71
2023-02-27T09:19:59.793Z,76.10
2023-02-27T09:22:26.142Z,74.81
2023-02-27T09:24:52.470Z,74.73
2023-02-27T09:27:18.800Z,74.60
2023-02-27T09:29:45.104Z,74.18
2023-02-27T09:32:12.278Z,73.62
2023-02-27T09:34:38.721Z,73.52
2023-02-27T09:37:05.057Z,73.40
2023-02-27T09:39:31.465Z,73.66
2023-02-27T09:42:06.553Z,73.78
2023-02-27T09:44:46.566Z,73.81
2023-02-27T09:47:30.033Z,72.90
2023-02-27T09:50:39.345Z,72.71
2023-02-27T09:53:12.380Z,73.27
2023-02-27T09:55:40.124Z,72.54
2023-02-27T09:58:37.906Z,72.93
2023-02-27T10:01:23.352Z,72.93
2023-02-27T10:04:15.109Z,73.18
2023-02-27T10:07:09.511Z,73.18
2023-02-27T10:09:47.661Z,72.53
2023-02-27T10:12:36.117Z,72.05
2023-02-27T10:15:17.228Z,72.99
2023-02-27T10:17:49.997Z,71.35
2023-02-27T10:20:28.696Z,69.88
2023-02-27T10:22:59.612Z,67.97
2023-02-27T10:25:31.726Z,66.02
2023-02-27T10:28:12.229Z,67.28
2023-02-27T10:30:38.763Z,64.67
2023-02-27T10:33:15.609Z,63.13
2023-02-27T10:35:44.790Z,64.93
2023-02-27T10:38:14.995Z,62.10
2023-02-27T10:40:42.608Z,61.74
2023-02-27T10:43:09.048Z,61.01
2023-02-27T10:45:36.977Z,62.44
2023-02-27T10:48:05.247Z,61.80
2023-02-27T10:50:34.634Z,62.47
2023-02-27T10:53:04.011Z,60.54
2023-02-27T10:55:40.931Z,59.77
2023-02-27T10:58:07.419Z,60.32
2023-02-27T11:00:47.866Z,57.65
2023-02-27T11:03:24.396Z,55.12
2023-02-27T11:05:57.154Z,55.98
2023-02-27T11:08:26.982Z,56.45
2023-02-27T11:11:02.842Z,55.94
2023-02-27T11:13:32.392Z,55.68
2023-02-27T11:16:07.746Z,54.43
2023-02-27T11:18:36.093Z,53.32
2023-02-27T11:21:24.606Z,53.54
2023-02-27T11:23:55.612Z,52.78
2023-02-27T11:26:34.473Z,51.57
2023-02-27T11:29:11.556Z,50.43
2023-02-27T11:31:39.691Z,49.90
2023-02-27T11:34:08.155Z,50.24
2023-02-27T11:36:46.772Z,49.09
2023-02-27T11:39:36.263Z,48.57
2023-02-27T11:42:17.457Z,49.40
2023-02-27T11:45:13.125Z,48.51
2023-02-27T11:47:41.058Z,49.03
2023-02-27T11:50:34.088Z,48.11
2023-02-27T11:53:36.964Z,47.36
2023-02-27T11:56:08.375Z,48.17
2023-02-27T11:58:42.725Z,46.49
2023-02-27T12:01:18.351Z,46.30
2023-02-27T12:03:58.042Z,44.49
2023-02-27T12:06:36.816Z,44.54
2023-02-27T12:09:15.970Z,44.61
2023-02-27T12:11:46.375Z,44.00
2023-02-27T12:14:43.208Z,43.34
2023-02-27T12:17:23.109Z,43.98
2023-02-27T12:20:10.006Z,42.42
2023-02-27T12:22:40.326Z,42.02
2023-02-27T12:25:10.858Z,42.44
2023-02-27T12:27:49.393Z,40.41
2023-02-27T12:30:21.161Z,40.10
2023-02-27T12:32:51.717Z,39.11
2023-02-27T12:35:24.042Z,38.64
2023-02-27T12:37:51.181Z,39.04
2023-02-27T12:40:19.342Z,37.03
2023-02-27T12:43:11.685Z,37.38
2023-02-27T12:45:46.745Z,36.41
2023-02-27T12:48:31.013Z,37.61
2023-02-27T12:51:17.550Z,37.83
2023-02-27T12:54:21.328Z,36.90
2023-02-27T12:57:05.955Z,36.45
2023-02-27T12:59:56.729Z,37.66
2023-02-27T13:02:41.827Z,36.04
2023-02-27T13:05:14.749Z,35.10
2023-02-27T13:08:05.894Z,34.61
2023-02-27T13:10:51.186Z,33.64
2023-02-27T13:13:41.821Z,33.20
2023-02-27T13:16:20.792Z,32.76
2023-02-27T13:19:12.682Z,33.57
2023-02-27T13:21:54.716Z,34.91
2023-02-27T13:24:30.145Z,36.16
2023-02-27T13:27:11.817Z,38.55
2023-02-27T13:29:41.166Z,41.79
2023-02-27T13:32:36.504Z,42.21
2023-02-27T13:35:23.523Z,44.92
2023-02-27T13:38:30.844Z,44.13
2023-02-27T13:40:57.157Z,44.32
2023-02-27T13:43:46.372Z,44.02
2023-02-27T13:46:28.378Z,43.74
2023-02-27T13:49:28.277Z,43.08
2023-02-27T13:51:58.534Z,43.47
2023-02-27T13:54:31.513Z,43.65
2023-02-27T13:57:16.556Z,44.25
2023-02-27T13:59:51.949Z,43.81
2023-02-27T14:02:33.147Z,44.55
2023-02-27T14:05:04.660Z,44.16
2023-02-27T14:07:55.564Z,44.17
2023-02-27T14:10:28.690Z,43.56
2023-02-27T14:12:57.361Z,44.82
2023-02-27T14:15:26.444Z,44.47
2023-02-27T14:18:09.628Z,43.68
2023-02-27T14:20:38.810Z,44.28
2023-02-27T14:23:25.478Z,44.09
2023-02-27T14:25:57.793Z,44.97
2023-02-27T14:28:43.661Z,44.98
2023-02-27T14:31:34.632Z,44.55
2023-02-27T14:34:05.662Z,44.84
2023-02-27T14:36:39.895Z,44.85
2023-02-27T14:39:06.577Z,44.15
2023-02-27T14:41:49.470Z,44.55
2023-02-27T14:44:24.488Z,44.75
2023-02-27T14:46:53.253Z,44.67
2023-02-27T14:49:31.401Z,45.79
2023-02-27T14:52:10.765Z,46.43
2023-02-27T14:54:37.066Z,46.73
2023-02-27T14:57:06.461Z,45.75
2023-02-27T14:59:44.014Z,45.98
2023-02-27T15:02:28.907Z,46.48
2023-02-27T15:05:15.605Z,46.71
2023-02-27T15:07:45.867Z,47.04
2023-02-27T15:10:25.003Z,46.26
2023-02-27T15:12:54.432Z,48.27
2023-02-27T15:15:21.778Z,48.65
2023-02-27T15:17:52.780Z,47.70
2023-02-27T15:20:29.734Z,48.18
2023-02-27T15:23:01.390Z,47.26
2023-02-27T15:25:37.481Z,46.04
2023-02-27T15:28:20.848Z,46.93
2023-02-27T15:30:53.075Z,46.77
2023-02-27T15:33:25.441Z,46.92
2023-02-27T15:35:51.930Z,46.59
2023-02-27T15:38:30.049Z,46.66
2023-02-27T15:40:58.084Z,46.73
2023-02-27T15:43:26.710Z,47.32
2023-02-27T15:45:53.641Z,46.87
2023-02-27T15:48:21.125Z,47.79
2023-02-27T15:51:08.966Z,47.95
2023-02-27T15:53:35.607Z,46.93
2023-02-27T15:56:06.018Z,47.91
2023-02-27T15:58:38.693Z,47.86
2023-02-27T16:01:12.966Z,47.95
2023-02-27T16:03:45.134Z,48.05
2023-02-27T16:06:23.198Z,48.83
2023-02-27T16:09:02.352Z,49.19
2023-02-27T16:11:31.260Z,48.38
2023-02-27T16:13:58.185Z,49.38
2023-02-27T16:16:31.486Z,49.44
2023-02-27T16:18:59.949Z,49.05
2023-02-27T16:21:33.452Z,49.21
2023-02-27T16:24:20.871Z,49.22
2023-02-27T16:26:52.845Z,50.47
2023-02-27T16:29:21.613Z,50.12
2023-02-27T16:31:57.872Z,49.65
2023-02-27T16:34:45.157Z,50.60
2023-02-27T16:37:26.960Z,50.85
2023-02-27T16:39:54.330Z,50.62
2023-02-27T16:42:21.600Z,50.26
2023-02-27T16:44:47.949Z,50.28
2023-02-27T16:47:14.344Z,49.71
2023-02-27T16:49:40.706Z,48.66
2023-02-27T16:52:10.319Z,49.17
2023-02-27T16:54:36.808Z,50.46
2023-02-27T16:57:03.794Z,50.20
2023-02-27T16:59:34.126Z,50.56
2023-02-27T17:02:03.241Z,50.62
2023-02-27T17:04:30.132Z,50.25
2023-02-27T17:06:58.579Z,50.31
2023-02-27T17:09:27.266Z,50.36
2023-02-27T17:11:54.954Z,50.53
2023-02-27T17:14:22.135Z,50.88
2023-02-27T17:16:48.505Z,50.84
2023-02-27T17:19:15.660Z,50.63
2023-02-27T17:21:41.975Z,51.39
2023-02-27T17:24:08.688Z,51.90
2023-02-27T17:26:35.621Z,51.69
2023-02-27T17:29:03.017Z,51.73
2023-02-27T17:31:29.480Z,52.02
2023-02-27T17:33:55.996Z,52.31
2023-02-27T17:36:23.059Z,52.12
2023-02-27T17:38:55.222Z,52.25
2023-02-27T17:41:21.668Z,53.43
2023-02-27T17:43:53.714Z,52.71
2023-02-27T17:46:20.083Z,52.99
2023-02-27T17:48:46.452Z,52.98
2023-02-27T17:51:15.099Z,52.60
2023-02-27T17:53:42.298Z,52.79
2023-02-27T17:56:09.815Z,53.02
2023-02-27T17:58:36.368Z,54.01
2023-02-27T18:01:11.396Z,53.86
2023-02-27T18:03:38.518Z,54.49
2023-02-27T18:06:05.282Z,53.86
2023-02-27T18:08:31.786Z,54.00
2023-02-27T18:10:58.651Z,53.41
2023-02-27T18:13:27.141Z,54.02
2023-02-27T18:15:55.085Z,54.26
2023-02-27T18:18:22.562Z,54.13
2023-02-27T18:20:59.458Z,54.72
2023-02-27T18:23:25.784Z,55.03
2023-02-27T18:25:56.808Z,54.79
2023-02-27T18:28:23.444Z,55.03
2023-02-27T18:30:50.038Z,55.00
2023-02-27T18:33:16.504Z,55.16
2023-02-27T18:35:42.849Z,55.19
2023-02-27T18:38:09.198Z,55.43
2023-02-27T18:40:35.602Z,54.72
2023-02-27T18:43:01.929Z,55.21
2023-02-27T18:45:29.610Z,55.96
2023-02-27T18:47:56.092Z,55.68
2023-02-27T18:50:23.228Z,55.99
2023-02-27T18:52:50.047Z,56.01
2023-02-27T18:55:17.492Z,55.37
2023-02-27T18:57:44.925Z,56.07
2023-02-27T19:00:12.613Z,56.68
2023-02-27T19:02:41.612Z,56.50
2023-02-27T19:05:10.968Z,56.42
2023-02-27T19:07:38.184Z,57.31
2023-02-27T19:10:05.908Z,56.94
2023-02-27T19:12:32.217Z,57.85
2023-02-27T19:14:58.526Z,57.59
2023-02-27T19:17:25.613Z,57.16
2023-02-27T19:19:55.273Z,57.01
2023-02-27T19:22:21.685Z,57.42
2023-02-27T19:24:49.634Z,57.66
2023-02-27T19:27:17.055Z,57.80
2023-02-27T19:29:43.592Z,57.89
2023-02-27T19:32:09.996Z,57.69
2023-02-27T19:34:36.413Z,58.36
2023-02-27T19:37:02.916Z,58.90
2023-02-27T19:39:29.264Z,58.50
2023-02-27T19:41:56.384Z,58.91
2023-02-27T19:44:23.139Z,59.16
2023-02-27T19:46:51.835Z,58.75
2023-02-27T19:49:19.136Z,59.64
2023-02-27T19:51:45.440Z,58.91
2023-02-27T19:54:13.704Z,59.86
2023-02-27T19:56:40.029Z,59.69
2023-02-27T19:59:06.340Z,60.12
2023-02-27T20:01:36.057Z,61.05
2023-02-27T20:04:03.145Z,60.62
2023-02-27T20:06:31.941Z,60.29
2023-02-27T20:08:59.108Z,61.27
2023-02-27T20:11:29.767Z,61.08
2023-02-27T20:13:56.554Z,60.92
2023-02-27T20:16:24.065Z,60.59
2023-02-27T20:18:51.262Z,61.68
2023-02-27T20:21:20.228Z,61.76
2023-02-27T20:23:47.198Z,61.81
2023-02-27T20:26:18.289Z,61.56
2023-02-27T20:28:44.723Z,62.05
2023-02-27T20:31:12.612Z,62.52
2023-02-27T20:33:39.761Z,62.33
2023-02-27T20:36:08.605Z,62.64
2023-02-27T20:38:39.001Z,62.13
2023-02-27T20:41:11.052Z,62.44
2023-02-27T20:43:38.407Z,62.04
2023-02-27T20:46:06.941Z,62.50
2023-02-27T20:48:33.606Z,62.86
2023-02-27T20:51:07.979Z,62.22
2023-02-27T20:53:36.410Z,63.52
2023-02-27T20:56:03.344Z,64.25
2023-02-27T20:58:29.696Z,63.85
2023-02-27T21:00:56.247Z,64.55
2023-02-27T21:03:23.150Z,65.06
2023-02-27T21:05:50.964Z,64.35
2023-02-27T21:08:18.406Z,65.22
2023-02-27T21:10:46.434Z,65.15
2023-02-27T21:13:12.793Z,65.29
2023-02-27T21:15:40.686Z,65.48
2023-02-27T21:18:08.744Z,66.69
2023-02-27T21:20:35.048Z,65.58
2023-02-27T21:23:01.429Z,66.21
2023-02-27T21:25:28.327Z,66.53
2023-02-27T21:28:02.126Z,66.87
2023-02-27T21:30:29.859Z,67.67
2023-02-27T21:32:57.517Z,67.13
2023-02-27T21:35:24.344Z,67.23
2023-02-27T21:37:53.418Z,66.34
2023-02-27T21:40:19.812Z,66.45
2023-02-27T21:42:47.047Z,66.64
2023-02-27T21:45:13.358Z,67.34
2023-02-27T21:47:39.783Z,67.25
2023-02-27T21:50:14.074Z,67.20
2023-02-27T21:52:44.223Z,66.58
2023-02-27T21:55:12.015Z,66.54
2023-02-27T21:57:39.489Z,67.37
2023-02-27T22:00:10.876Z,67.74
2023-02-27T22:02:39.179Z,68.21
2023-02-27T22:05:06.841Z,68.93
2023-02-27T22:07:33.205Z,68.57
2023-02-27T22:09:59.536Z,68.36
2023-02-27T22:12:26.839Z,69.18
2023-02-27T22:14:53.152Z,69.02
2023-02-27T22:17:19.444Z,69.11
2023-02-27T22:19:45.743Z,68.86
2023-02-27T22:22:12.062Z,69.79
2023-02-27T22:24:38.344Z,69.40
2023-02-27T22:27:04.629Z,68.73
2023-02-27T22:29:31.525Z,69.59
2023-02-27T22:31:57.889Z,69.43
2023-02-27T22:34:24.218Z,69.13
2023-02-27T22:36:52.355Z,69.29
2023-02-27T22:39:19.566Z,69.63
2023-02-27T22:41:46.125Z,70.31
2023-02-27T22:44:14.365Z,69.67
2023-02-27T22:46:43.970Z,69.59
2023-02-27T22:49:13.683Z,70.97
2023-02-27T22:51:40.396Z,70.94
2023-02-27T22:54:08.135Z,71.26
2023-02-27T22:56:36.404Z,71.60
2023-02-27T22:59:04.203Z,71.38
2023-02-27T23:01:32.755Z,72.09
2023-02-27T23:04:03.956Z,72.86
2023-02-27T23:06:33.569Z,72.56
2023-02-27T23:09:01.086Z,72.88
2023-02-27T23:11:28.462Z,72.73
2023-02-27T23:13:55.246Z,73.46
2023-02-27T23:16:22.142Z,74.89
2023-02-27T23:18:54.380Z,75.08
2023-02-27T23:21:24.096Z,74.05
2023-02-27T23:23:53.577Z,73.98
2023-02-27T23:26:20.378Z,75.91
2023-02-27T23:28:46.685Z,75.05
2023-02-27T23:31:13.031Z,75.67
2023-02-27T23:33:39.336Z,75.76
2023-02-27T23:36:06.114Z,75.83
2023-02-27T23:38:32.420Z,76.19
2023-02-27T23:41:05.009Z,77.34
2023-02-27T23:43:31.340Z,76.61
2023-02-27T23:45:57.796Z,76.72
2023-02-27T23:48:24.194Z,76.62
2023-02-27T23:50:50.794Z,78.51
2023-02-27T23:53:17.191Z,77.41
2023-02-27T23:55:43.962Z,78.42
2023-02-27T23:58:11.172Z,79.17
